sensor_id;sensor_type;location;lat;lon;timestamp;pressure;altitude;pressure_sealevel;temperature;humidity
23417;BME280;11881;42.432;25.632;2022-11-20T00:00:55;98773.84;;;16.38;100.00
23417;BME280;11881;42.432;25.632;2022-11-20T00:03:21;98782.00;;;16.44;100.00
23417;BME280;11881;42.432;25.632;2022-11-20T00:05:46;98769.03;;;16.48;100.00
23417;BME280;11881;42.432;25.632;2022-11-20T00:08:12;98783.66;;;16.45;100.00
23417;BME280;11881;42.432;25.632;2022-11-20T00:10:39;98802.56;;;16.52;100.00
23417;BME280;11881;42.432;25.632;2022-11-20T00:13:05;98784.75;;;16.51;100.00
23417;BME280;11881;42.432;25.632;2022-11-20T00:15:30;98779.13;;;16.46;100.00
23417;BME280;11881;42.432;25.632;2022-11-20T00:17:56;98781.44;;;16.49;100.00
23417;BME280;11881;42.432;25.632;2022-11-20T00:20:21;98781.09;;;16.37;100.00
23417;BME280;11881;42.432;25.632;2022-11-20T00:22:47;98780.53;;;16.27;100.00
23417;BME280;11881;42.432;25.632;2022-11-20T00:25:13;98776.47;;;16.31;100.00
23417;BME280;11881;42.432;25.632;2022-11-20T00:27:38;98777.94;;;16.34;100.00
23417;BME280;11881;42.432;25.632;2022-11-20T00:30:04;98782.50;;;16.18;100.00
23417;BME280;11881;42.432;25.632;2022-11-20T00:32:30;98778.34;;;16.16;100.00
23417;BME280;11881;42.432;25.632;2022-11-20T00:34:55;98787.91;;;16.18;100.00
23417;BME280;11881;42.432;25.632;2022-11-20T00:37:21;98783.91;;;16.14;100.00
23417;BME280;11881;42.432;25.632;2022-11-20T00:39:46;98781.31;;;16.06;100.00
23417;BME280;11881;42.432;25.632;2022-11-20T00:42:12;98779.19;;;16.02;100.00
23417;BME280;11881;42.432;25.632;2022-11-20T00:44:37;98770.63;;;16.28;100.00
23417;BME280;11881;42.432;25.632;2022-11-20T00:47:03;98784.66;;;16.59;100.00
23417;BME280;11881;42.432;25.632;2022-11-20T00:49:28;98777.81;;;16.71;100.00
23417;BME280;11881;42.432;25.632;2022-11-20T00:51:54;98785.66;;;16.73;100.00
23417;BME280;11881;42.432;25.632;2022-11-20T00:54:19;98787.88;;;16.69;100.00
23417;BME280;11881;42.432;25.632;2022-11-20T00:56:45;98774.59;;;16.68;100.00
23417;BME280;11881;42.432;25.632;2022-11-20T00:59:10;98764.63;;;16.62;100.00
23417;BME280;11881;42.432;25.632;2022-11-20T01:01:36;98783.38;;;16.55;100.00
23417;BME280;11881;42.432;25.632;2022-11-20T01:04:02;98772.06;;;16.45;100.00
23417;BME280;11881;42.432;25.632;2022-11-20T01:06:33;98760.28;;;16.46;100.00
23417;BME280;11881;42.432;25.632;2022-11-20T01:09:01;98762.06;;;16.54;100.00
23417;BME280;11881;42.432;25.632;2022-11-20T01:11:29;98779.13;;;16.46;100.00
23417;BME280;11881;42.432;25.632;2022-11-20T01:13:57;98769.19;;;16.46;100.00
23417;BME280;11881;42.432;25.632;2022-11-20T01:16:28;98753.91;;;16.47;100.00
23417;BME280;11881;42.432;25.632;2022-11-20T01:18:57;98760.56;;;16.51;100.00
23417;BME280;11881;42.432;25.632;2022-11-20T01:21:28;98756.34;;;16.63;100.00
23417;BME280;11881;42.432;25.632;2022-11-20T01:23:54;98764.34;;;16.93;100.00
23417;BME280;11881;42.432;25.632;2022-11-20T01:26:22;98748.44;;;17.19;100.00
23417;BME280;11881;42.432;25.632;2022-11-20T01:28:48;98755.94;;;17.24;100.00
23417;BME280;11881;42.432;25.632;2022-11-20T01:31:18;98751.84;;;17.28;100.00
23417;BME280;11881;42.432;25.632;2022-11-20T01:33:46;98745.84;;;17.33;100.00
23417;BME280;11881;42.432;25.632;2022-11-20T01:36:13;98751.91;;;17.35;100.00
23417;BME280;11881;42.432;25.632;2022-11-20T01:38:39;98756.44;;;17.34;100.00
23417;BME280;11881;42.432;25.632;2022-11-20T01:41:05;98749.53;;;17.25;100.00
23417;BME280;11881;42.432;25.632;2022-11-20T01:43:31;98759.00;;;17.21;100.00
23417;BME280;11881;42.432;25.632;2022-11-20T01:49:11;98745.56;;;17.49;100.00
23417;BME280;11881;42.432;25.632;2022-11-20T01:51:22;98739.31;;;17.42;100.00
23417;BME280;11881;42.432;25.632;2022-11-20T01:53:50;98731.06;;;17.50;100.00
23417;BME280;11881;42.432;25.632;2022-11-20T01:56:18;98722.53;;;17.40;100.00
23417;BME280;11881;42.432;25.632;2022-11-20T01:58:50;98719.22;;;17.44;100.00
23417;BME280;11881;42.432;25.632;2022-11-20T02:01:16;98717.22;;;17.53;100.00
23417;BME280;11881;42.432;25.632;2022-11-20T02:03:43;98722.06;;;17.64;100.00
23417;BME280;11881;42.432;25.632;2022-11-20T02:08:34;98710.69;;;17.69;100.00
23417;BME280;11881;42.432;25.632;2022-11-20T02:11:01;98711.97;;;17.73;100.00
23417;BME280;11881;42.432;25.632;2022-11-20T02:13:27;98718.44;;;17.78;100.00
23417;BME280;11881;42.432;25.632;2022-11-20T02:18:45;98699.41;;;17.87;100.00
23417;BME280;11881;42.432;25.632;2022-11-20T02:24:18;98685.59;;;17.68;100.00
23417;BME280;11881;42.432;25.632;2022-11-20T02:26:51;98687.34;;;17.48;100.00
23417;BME280;11881;42.432;25.632;2022-11-20T02:29:32;98691.66;;;17.42;100.00
23417;BME280;11881;42.432;25.632;2022-11-20T02:32:00;98695.53;;;17.33;100.00
23417;BME280;11881;42.432;25.632;2022-11-20T02:34:26;98699.25;;;17.32;100.00
23417;BME280;11881;42.432;25.632;2022-11-20T02:36:52;98700.00;;;17.19;100.00
23417;BME280;11881;42.432;25.632;2022-11-20T02:39:19;98704.88;;;17.09;100.00
23417;BME280;11881;42.432;25.632;2022-11-20T02:41:45;98698.94;;;16.92;100.00
23417;BME280;11881;42.432;25.632;2022-11-20T02:44:11;98723.50;;;16.83;100.00
23417;BME280;11881;42.432;25.632;2022-11-20T02:46:36;98703.44;;;16.85;100.00
23417;BME280;11881;42.432;25.632;2022-11-20T02:49:03;98705.28;;;16.85;100.00
23417;BME280;11881;42.432;25.632;2022-11-20T02:51:29;98706.69;;;16.81;100.00
23417;BME280;11881;42.432;25.632;2022-11-20T02:53:55;98718.13;;;16.68;100.00
23417;BME280;11881;42.432;25.632;2022-11-20T02:56:20;98706.06;;;16.64;100.00
23417;BME280;11881;42.432;25.632;2022-11-20T02:58:46;98696.81;;;16.66;100.00
23417;BME280;11881;42.432;25.632;2022-11-20T03:01:11;98702.28;;;16.58;100.00
23417;BME280;11881;42.432;25.632;2022-11-20T03:03:37;98691.47;;;16.52;100.00
23417;BME280;11881;42.432;25.632;2022-11-20T03:06:02;98690.09;;;16.56;100.00
23417;BME280;11881;42.432;25.632;2022-11-20T03:08:27;98688.03;;;16.58;100.00
23417;BME280;11881;42.432;25.632;2022-11-20T03:10:53;98691.31;;;16.53;100.00
23417;BME280;11881;42.432;25.632;2022-11-20T03:13:19;98687.13;;;16.50;100.00
23417;BME280;11881;42.432;25.632;2022-11-20T03:15:44;98687.97;;;16.51;100.00
23417;BME280;11881;42.432;25.632;2022-11-20T03:18:09;98681.13;;;16.48;100.00
23417;BME280;11881;42.432;25.632;2022-11-20T03:20:35;98685.47;;;16.49;100.00
23417;BME280;11881;42.432;25.632;2022-11-20T03:23:01;98690.31;;;16.39;100.00
23417;BME280;11881;42.432;25.632;2022-11-20T03:25:27;98686.88;;;16.45;100.00
23417;BME280;11881;42.432;25.632;2022-11-20T03:27:53;98691.53;;;16.37;100.00
23417;BME280;11881;42.432;25.632;2022-11-20T03:30:19;98691.91;;;16.34;100.00
23417;BME280;11881;42.432;25.632;2022-11-20T03:32:44;98687.19;;;16.36;100.00
23417;BME280;11881;42.432;25.632;2022-11-20T03:35:09;98683.97;;;16.26;100.00
23417;BME280;11881;42.432;25.632;2022-11-20T03:37:35;98680.47;;;16.25;100.00
23417;BME280;11881;42.432;25.632;2022-11-20T03:40:00;98677.69;;;16.18;100.00
23417;BME280;11881;42.432;25.632;2022-11-20T03:42:26;98691.41;;;16.23;100.00
23417;BME280;11881;42.432;25.632;2022-11-20T03:45:10;98684.25;;;16.31;100.00
23417;BME280;11881;42.432;25.632;2022-11-20T03:47:35;98673.59;;;16.22;100.00
23417;BME280;11881;42.432;25.632;2022-11-20T03:50:01;98680.38;;;16.18;100.00
23417;BME280;11881;42.432;25.632;2022-11-20T03:52:26;98683.63;;;16.14;100.00
23417;BME280;11881;42.432;25.632;2022-11-20T03:54:52;98675.69;;;16.42;100.00
23417;BME280;11881;42.432;25.632;2022-11-20T03:57:17;98679.72;;;16.74;100.00
23417;BME280;11881;42.432;25.632;2022-11-20T03:59:42;98680.56;;;16.74;100.00
23417;BME280;11881;42.432;25.632;2022-11-20T04:02:08;98673.47;;;16.88;100.00
23417;BME280;11881;42.432;25.632;2022-11-20T04:04:33;98684.06;;;16.75;100.00
23417;BME280;11881;42.432;25.632;2022-11-20T04:06:59;98686.06;;;16.66;100.00
23417;BME280;11881;42.432;25.632;2022-11-20T04:09:24;98685.16;;;16.59;100.00
23417;BME280;11881;42.432;25.632;2022-11-20T04:11:50;98676.56;;;16.49;100.00
23417;BME280;11881;42.432;25.632;2022-11-20T04:14:16;98681.94;;;16.49;100.00
23417;BME280;11881;42.432;25.632;2022-11-20T04:16:42;98681.38;;;16.54;100.00
23417;BME280;11881;42.432;25.632;2022-11-20T04:19:13;98688.22;;;16.56;100.00
23417;BME280;11881;42.432;25.632;2022-11-20T04:21:39;98694.50;;;16.42;100.00
23417;BME280;11881;42.432;25.632;2022-11-20T04:24:06;98695.44;;;16.34;100.00
23417;BME280;11881;42.432;25.632;2022-11-20T04:26:32;98697.50;;;16.32;100.00
23417;BME280;11881;42.432;25.632;2022-11-20T04:28:59;98700.16;;;16.32;100.00
23417;BME280;11881;42.432;25.632;2022-11-20T04:31:28;98696.31;;;16.20;100.00
23417;BME280;11881;42.432;25.632;2022-11-20T04:33:54;98699.38;;;16.17;100.00
23417;BME280;11881;42.432;25.632;2022-11-20T04:36:24;98707.44;;;16.17;100.00
23417;BME280;11881;42.432;25.632;2022-11-20T04:38:51;98714.66;;;16.16;100.00
23417;BME280;11881;42.432;25.632;2022-11-20T04:41:19;98706.31;;;16.11;100.00
23417;BME280;11881;42.432;25.632;2022-11-20T04:43:49;98712.94;;;16.09;100.00
23417;BME280;11881;42.432;25.632;2022-11-20T04:46:16;98712.53;;;16.12;100.00
23417;BME280;11881;42.432;25.632;2022-11-20T04:48:42;98705.13;;;16.14;100.00
23417;BME280;11881;42.432;25.632;2022-11-20T04:51:07;98702.88;;;16.17;100.00
23417;BME280;11881;42.432;25.632;2022-11-20T04:53:33;98705.13;;;16.14;100.00
23417;BME280;11881;42.432;25.632;2022-11-20T04:56:06;98699.84;;;16.20;100.00
23417;BME280;11881;42.432;25.632;2022-11-20T04:58:33;98707.06;;;16.20;100.00
23417;BME280;11881;42.432;25.632;2022-11-20T05:01:06;98708.09;;;16.19;100.00
23417;BME280;11881;42.432;25.632;2022-11-20T05:03:32;98710.28;;;16.30;100.00
23417;BME280;11881;42.432;25.632;2022-11-20T05:06:02;98707.13;;;16.27;100.00
23417;BME280;11881;42.432;25.632;2022-11-20T05:08:29;98703.44;;;16.28;100.00
23417;BME280;11881;42.432;25.632;2022-11-20T05:11:00;98716.44;;;16.09;100.00
23417;BME280;11881;42.432;25.632;2022-11-20T05:13:26;98714.66;;;16.16;100.00
23417;BME280;11881;42.432;25.632;2022-11-20T05:15:52;98719.13;;;16.24;100.00
23417;BME280;11881;42.432;25.632;2022-11-20T05:18:17;98715.66;;;16.30;100.00
23417;BME280;11881;42.432;25.632;2022-11-20T05:20:42;98722.16;;;16.21;100.00
23417;BME280;11881;42.432;25.632;2022-11-20T05:23:08;98716.50;;;16.31;100.00
23417;BME280;11881;42.432;25.632;2022-11-20T05:25:33;98716.88;;;16.28;100.00
23417;BME280;11881;42.432;25.632;2022-11-20T05:27:59;98711.50;;;16.28;100.00
23417;BME280;11881;42.432;25.632;2022-11-20T05:30:24;98720.78;;;16.25;100.00
23417;BME280;11881;42.432;25.632;2022-11-20T05:32:49;98716.09;;;16.34;100.00
23417;BME280;11881;42.432;25.632;2022-11-20T05:35:15;98711.66;;;16.41;100.00
23417;BME280;11881;42.432;25.632;2022-11-20T05:37:40;98713.34;;;16.85;100.00
23417;BME280;11881;42.432;25.632;2022-11-20T05:40:06;98706.84;;;16.94;100.00
23417;BME280;11881;42.432;25.632;2022-11-20T05:42:32;98714.31;;;16.98;100.00
23417;BME280;11881;42.432;25.632;2022-11-20T05:44:58;98722.19;;;17.00;100.00
23417;BME280;11881;42.432;25.632;2022-11-20T05:47:24;98723.59;;;16.96;100.00
23417;BME280;11881;42.432;25.632;2022-11-20T05:49:50;98728.94;;;16.89;100.00
23417;BME280;11881;42.432;25.632;2022-11-20T05:52:15;98731.56;;;16.83;100.00
23417;BME280;11881;42.432;25.632;2022-11-20T05:54:40;98724.44;;;16.75;100.00
23417;BME280;11881;42.432;25.632;2022-11-20T05:57:06;98733.44;;;16.67;100.00
23417;BME280;11881;42.432;25.632;2022-11-20T05:59:31;98718.91;;;16.62;100.00
23417;BME280;11881;42.432;25.632;2022-11-20T06:01:57;98737.09;;;16.60;100.00
23417;BME280;11881;42.432;25.632;2022-11-20T06:04:22;98732.97;;;16.64;100.00
23417;BME280;11881;42.432;25.632;2022-11-20T06:06:47;98739.88;;;16.52;100.00
23417;BME280;11881;42.432;25.632;2022-11-20T06:09:13;98744.44;;;16.51;100.00
23417;BME280;11881;42.432;25.632;2022-11-20T06:11:38;98739.50;;;16.55;100.00
23417;BME280;11881;42.432;25.632;2022-11-20T06:14:04;98750.69;;;16.58;100.00
23417;BME280;11881;42.432;25.632;2022-11-20T06:16:29;98746.56;;;16.56;100.00
23417;BME280;11881;42.432;25.632;2022-11-20T06:18:54;98743.88;;;16.56;100.00
23417;BME280;11881;42.432;25.632;2022-11-20T06:21:21;98745.59;;;16.42;100.00
23417;BME280;11881;42.432;25.632;2022-11-20T06:23:48;98743.00;;;16.34;100.00
23417;BME280;11881;42.432;25.632;2022-11-20T06:26:18;98742.69;;;16.43;100.00
23417;BME280;11881;42.432;25.632;2022-11-20T06:28:45;98748.84;;;16.37;100.00
23417;BME280;11881;42.432;25.632;2022-11-20T06:31:12;98758.75;;;16.37;100.00
23417;BME280;11881;42.432;25.632;2022-11-20T06:33:38;98764.69;;;16.32;100.00
23417;BME280;11881;42.432;25.632;2022-11-20T06:36:04;98769.69;;;16.35;100.00
23417;BME280;11881;42.432;25.632;2022-11-20T06:38:30;98769.94;;;16.40;100.00
23417;BME280;11881;42.432;25.632;2022-11-20T06:40:55;98773.31;;;16.42;100.00
23417;BME280;11881;42.432;25.632;2022-11-20T06:43:22;98779.13;;;16.46;100.00
23417;BME280;11881;42.432;25.632;2022-11-20T06:45:55;98783.09;;;16.50;100.00
23417;BME280;11881;42.432;25.632;2022-11-20T06:48:21;98782.06;;;16.51;100.00
23417;BME280;11881;42.432;25.632;2022-11-20T06:50:47;98778.00;;;16.55;100.00
23417;BME280;11881;42.432;25.632;2022-11-20T06:53:12;98780.13;;;16.60;100.00
23417;BME280;11881;42.432;25.632;2022-11-20T06:55:42;98783.28;;;16.48;100.00
23417;BME280;11881;42.432;25.632;2022-11-20T06:58:09;98787.00;;;16.47;100.00
23417;BME280;11881;42.432;25.632;2022-11-20T07:00:34;98787.56;;;16.43;100.00
23417;BME280;11881;42.432;25.632;2022-11-20T07:03:03;98779.50;;;16.43;100.00
23417;BME280;11881;42.432;25.632;2022-11-20T07:05:29;98784.31;;;16.47;100.00
23417;BME280;11881;42.432;25.632;2022-11-20T07:07:56;98784.41;;;16.54;100.00
23417;BME280;11881;42.432;25.632;2022-11-20T07:10:21;98782.91;;;16.52;100.00
23417;BME280;11881;42.432;25.632;2022-11-20T07:12:51;98783.56;;;16.54;100.00
23417;BME280;11881;42.432;25.632;2022-11-20T07:15:17;98789.78;;;16.54;100.00
23417;BME280;11881;42.432;25.632;2022-11-20T07:17:42;98784.94;;;16.64;100.00
23417;BME280;11881;42.432;25.632;2022-11-20T07:20:08;98794.97;;;16.70;100.00
23417;BME280;11881;42.432;25.632;2022-11-20T07:22:34;98795.03;;;16.77;100.00
23417;BME280;11881;42.432;25.632;2022-11-20T07:24:59;98789.91;;;16.82;100.00
23417;BME280;11881;42.432;25.632;2022-11-20T07:27:24;98776.13;;;16.92;100.00
23417;BME280;11881;42.432;25.632;2022-11-20T07:29:50;98776.66;;;17.02;100.00
23417;BME280;11881;42.432;25.632;2022-11-20T07:32:15;98775.31;;;17.13;100.00
23417;BME280;11881;42.432;25.632;2022-11-20T07:34:41;98769.53;;;17.16;100.00
23417;BME280;11881;42.432;25.632;2022-11-20T07:37:06;98776.59;;;17.17;100.00
23417;BME280;11881;42.432;25.632;2022-11-20T07:39:32;98766.66;;;17.17;100.00
23417;BME280;11881;42.432;25.632;2022-11-20T07:41:57;98774.63;;;17.32;100.00
23417;BME280;11881;42.432;25.632;2022-11-20T07:44:22;98774.47;;;17.34;100.00
23417;BME280;11881;42.432;25.632;2022-11-20T07:46:48;98776.28;;;17.33;100.00
23417;BME280;11881;42.432;25.632;2022-11-20T07:49:13;98774.88;;;17.37;100.00
23417;BME280;11881;42.432;25.632;2022-11-20T07:51:38;98773.44;;;17.35;100.00
23417;BME280;11881;42.432;25.632;2022-11-20T07:54:04;98788.59;;;17.42;100.00
23417;BME280;11881;42.432;25.632;2022-11-20T07:56:29;98780.53;;;17.42;100.00
23417;BME280;11881;42.432;25.632;2022-11-20T07:58:55;98770.22;;;17.46;100.00
23417;BME280;11881;42.432;25.632;2022-11-20T08:01:20;98778.34;;;17.52;100.00
23417;BME280;11881;42.432;25.632;2022-11-20T08:03:46;98784.38;;;17.61;100.00
23417;BME280;11881;42.432;25.632;2022-11-20T08:06:11;98775.53;;;17.67;100.00
23417;BME280;11881;42.432;25.632;2022-11-20T08:08:36;98779.03;;;17.68;100.00
23417;BME280;11881;42.432;25.632;2022-11-20T08:11:04;98780.53;;;17.70;100.00
23417;BME280;11881;42.432;25.632;2022-11-20T08:13:48;98787.97;;;17.68;100.00
23417;BME280;11881;42.432;25.632;2022-11-20T08:16:32;98790.28;;;17.71;100.00
23417;BME280;11881;42.432;25.632;2022-11-20T08:18:58;98783.09;;;17.78;100.00
23417;BME280;11881;42.432;25.632;2022-11-20T08:21:23;98773.00;;;17.87;100.00
23417;BME280;11881;42.432;25.632;2022-11-20T08:23:49;98782.16;;;17.93;100.00
23417;BME280;11881;42.432;25.632;2022-11-20T08:26:14;98783.66;;;18.02;100.00
23417;BME280;11881;42.432;25.632;2022-11-20T08:28:39;98780.38;;;18.06;100.00
23417;BME280;11881;42.432;25.632;2022-11-20T08:31:05;98783.31;;;18.18;100.00
23417;BME280;11881;42.432;25.632;2022-11-20T08:33:30;98787.06;;;18.17;100.00
23417;BME280;11881;42.432;25.632;2022-11-20T08:36:02;98785.19;;;18.18;100.00
23417;BME280;11881;42.432;25.632;2022-11-20T08:38:29;98780.66;;;18.25;100.00
23417;BME280;11881;42.432;25.632;2022-11-20T08:41:05;98776.13;;;18.32;100.00
23417;BME280;11881;42.432;25.632;2022-11-20T08:44:00;98778.63;;;18.27;100.00
23417;BME280;11881;42.432;25.632;2022-11-20T08:46:30;98780.69;;;18.31;100.00
23417;BME280;11881;42.432;25.632;2022-11-20T08:48:57;98779.28;;;18.42;100.00
23417;BME280;11881;42.432;25.632;2022-11-20T08:51:22;98780.56;;;18.53;100.00
23417;BME280;11881;42.432;25.632;2022-11-20T08:53:47;98766.69;;;18.56;100.00
23417;BME280;11881;42.432;25.632;2022-11-20T08:56:17;98768.97;;;18.66;100.00
23417;BME280;11881;42.432;25.632;2022-11-20T08:58:43;98758.41;;;18.64;100.00
23417;BME280;11881;42.432;25.632;2022-11-20T09:01:08;98759.72;;;18.75;100.00
23417;BME280;11881;42.432;25.632;2022-11-20T09:03:34;98742.50;;;18.82;100.00
23417;BME280;11881;42.432;25.632;2022-11-20T09:06:03;98735.44;;;18.81;100.00
23417;BME280;11881;42.432;25.632;2022-11-20T09:08:29;98728.59;;;18.79;100.00
23417;BME280;11881;42.432;25.632;2022-11-20T09:10:56;98733.16;;;18.85;100.00
23417;BME280;11881;42.432;25.632;2022-11-20T09:13:22;98737.75;;;18.84;100.00
23417;BME280;11881;42.432;25.632;2022-11-20T09:15:59;98738.53;;;18.78;100.00
23417;BME280;11881;42.432;25.632;2022-11-20T09:18:26;98740.22;;;18.86;100.00
23417;BME280;11881;42.432;25.632;2022-11-20T09:20:56;98728.59;;;18.92;100.00
23417;BME280;11881;42.432;25.632;2022-11-20T09:23:21;98721.34;;;18.93;100.00
23417;BME280;11881;42.432;25.632;2022-11-20T09:25:47;98729.00;;;18.96;100.00
23417;BME280;11881;42.432;25.632;2022-11-20T09:28:12;98741.28;;;18.92;100.00
23417;BME280;11881;42.432;25.632;2022-11-20T09:30:38;98722.59;;;18.97;100.00
23417;BME280;11881;42.432;25.632;2022-11-20T09:33:04;98706.19;;;18.98;100.00
23417;BME280;11881;42.432;25.632;2022-11-20T09:35:30;98712.81;;;18.96;100.00
23417;BME280;11881;42.432;25.632;2022-11-20T09:37:56;98702.66;;;18.91;100.00
23417;BME280;11881;42.432;25.632;2022-11-20T09:40:24;98715.09;;;18.79;100.00
23417;BME280;11881;42.432;25.632;2022-11-20T09:54:19;98682.91;;;18.84;100.00
23417;BME280;11881;42.432;25.632;2022-11-20T09:56:49;98680.84;;;18.86;100.00
23417;BME280;11881;42.432;25.632;2022-11-20T09:59:42;98690.19;;;18.97;100.00
23417;BME280;11881;42.432;25.632;2022-11-20T10:02:47;98684.38;;;19.20;100.00
23417;BME280;11881;42.432;25.632;2022-11-20T10:05:31;98667.94;;;19.34;100.00
23417;BME280;11881;42.432;25.632;2022-11-20T10:08:25;98676.22;;;19.46;100.00
23417;BME280;11881;42.432;25.632;2022-11-20T10:18:56;98666.22;;;19.73;100.00
23417;BME280;11881;42.432;25.632;2022-11-20T10:21:30;98660.81;;;19.73;100.00
23417;BME280;11881;42.432;25.632;2022-11-20T10:24:13;98663.28;;;19.81;100.00
23417;BME280;11881;42.432;25.632;2022-11-20T10:29:47;98672.78;;;19.97;100.00
23417;BME280;11881;42.432;25.632;2022-11-20T10:32:24;98669.44;;;20.02;100.00
23417;BME280;11881;42.432;25.632;2022-11-20T10:35:00;98662.13;;;20.09;100.00
23417;BME280;11881;42.432;25.632;2022-11-20T10:37:27;98655.06;;;20.08;100.00
23417;BME280;11881;42.432;25.632;2022-11-20T10:40:22;98669.44;;;20.02;100.00
23417;BME280;11881;42.432;25.632;2022-11-20T10:43:00;98654.91;;;19.96;100.00
23417;BME280;11881;42.432;25.632;2022-11-20T10:48:38;98634.09;;;19.97;100.00
23417;BME280;11881;42.432;25.632;2022-11-20T10:56:40;98626.00;;;19.97;100.00
23417;BME280;11881;42.432;25.632;2022-11-20T11:01:57;98633.06;;;19.98;100.00
23417;BME280;11881;42.432;25.632;2022-11-20T11:07:02;98620.38;;;19.98;100.00
23417;BME280;11881;42.432;25.632;2022-11-20T11:09:35;98613.72;;;19.94;100.00
23417;BME280;11881;42.432;25.632;2022-11-20T11:12:08;98616.59;;;19.99;100.00
23417;BME280;11881;42.432;25.632;2022-11-20T11:17:45;98612.63;;;20.08;100.00
23417;BME280;11881;42.432;25.632;2022-11-20T11:20:20;98622.66;;;20.01;100.00
23417;BME280;11881;42.432;25.632;2022-11-20T11:22:54;98618.41;;;20.12;100.00
23417;BME280;11881;42.432;25.632;2022-11-20T11:27:50;98614.50;;;20.08;100.00
23417;BME280;11881;42.432;25.632;2022-11-20T11:30:18;98600.34;;;20.06;100.00
23417;BME280;11881;42.432;25.632;2022-11-20T11:32:43;98593.91;;;20.07;100.00
23417;BME280;11881;42.432;25.632;2022-11-20T11:35:24;98580.16;;;20.08;100.00
23417;BME280;11881;42.432;25.632;2022-11-20T11:37:51;98581.41;;;20.06;100.00
23417;BME280;11881;42.432;25.632;2022-11-20T11:40:19;98576.63;;;20.08;100.00
23417;BME280;11881;42.432;25.632;2022-11-20T11:43:25;98567.88;;;20.12;100.00
23417;BME280;11881;42.432;25.632;2022-11-20T11:46:30;98563.72;;;20.10;100.00
23417;BME280;11881;42.432;25.632;2022-11-20T11:49:08;98565.97;;;20.19;100.00
23417;BME280;11881;42.432;25.632;2022-11-20T11:52:08;98557.66;;;20.14;100.00
23417;BME280;11881;42.432;25.632;2022-11-20T11:54:58;98563.50;;;20.11;100.00
23417;BME280;11881;42.432;25.632;2022-11-20T12:00:09;98568.44;;;20.21;100.00
23417;BME280;11881;42.432;25.632;2022-11-20T12:03:02;98571.91;;;20.28;100.00
23417;BME280;11881;42.432;25.632;2022-11-20T12:05:29;98568.16;;;20.29;100.00
23417;BME280;11881;42.432;25.632;2022-11-20T12:08:15;98561.50;;;20.32;100.00
23417;BME280;11881;42.432;25.632;2022-11-20T12:10:50;98564.03;;;20.27;100.00
23417;BME280;11881;42.432;25.632;2022-11-20T12:15:59;98565.69;;;20.28;100.00
23417;BME280;11881;42.432;25.632;2022-11-20T12:18:25;98568.38;;;20.28;100.00
23417;BME280;11881;42.432;25.632;2022-11-20T12:26:12;98565.69;;;20.28;100.00
23417;BME280;11881;42.432;25.632;2022-11-20T12:36:59;98570.88;;;20.29;100.00
23417;BME280;11881;42.432;25.632;2022-11-20T12:39:34;98574.25;;;20.25;100.00
23417;BME280;11881;42.432;25.632;2022-11-20T12:42:13;98566.56;;;20.22;100.00
23417;BME280;11881;42.432;25.632;2022-11-20T12:45:20;98566.19;;;20.11;100.00
23417;BME280;11881;42.432;25.632;2022-11-20T13:01:24;98562.97;;;19.96;100.00
23417;BME280;11881;42.432;25.632;2022-11-20T13:07:06;98560.81;;;19.73;100.00
23417;BME280;11881;42.432;25.632;2022-11-20T13:09:35;98554.78;;;19.78;100.00
23417;BME280;11881;42.432;25.632;2022-11-20T13:12:10;98550.16;;;19.85;100.00
23417;BME280;11881;42.432;25.632;2022-11-20T13:15:01;98554.09;;;19.89;100.00
23417;BME280;11881;42.432;25.632;2022-11-20T13:17:41;98548.84;;;19.94;100.00
23417;BME280;11881;42.432;25.632;2022-11-20T13:20:16;98546.81;;;19.89;100.00
23417;BME280;11881;42.432;25.632;2022-11-20T13:22:44;98550.16;;;19.85;100.00
23417;BME280;11881;42.432;25.632;2022-11-20T13:27:50;98567.00;;;19.80;100.00
23417;BME280;11881;42.432;25.632;2022-11-20T13:30:19;98562.06;;;19.71;100.00
23417;BME280;11881;42.432;25.632;2022-11-20T13:35:29;98551.28;;;19.64;100.00
23417;BME280;11881;42.432;25.632;2022-11-20T13:40:27;98554.81;;;19.58;100.00
23417;BME280;11881;42.432;25.632;2022-11-20T13:46:01;98550.72;;;19.49;100.00
23417;BME280;11881;42.432;25.632;2022-11-20T13:48:32;98552.34;;;19.56;100.00
23417;BME280;11881;42.432;25.632;2022-11-20T13:56:47;98540.53;;;19.44;100.00
23417;BME280;11881;42.432;25.632;2022-11-20T14:02:13;98542.63;;;19.35;100.00
23417;BME280;11881;42.432;25.632;2022-11-20T14:04:43;98534.94;;;19.39;100.00
23417;BME280;11881;42.432;25.632;2022-11-20T14:07:10;98539.91;;;19.42;100.00
23417;BME280;11881;42.432;25.632;2022-11-20T14:09:36;98541.78;;;19.48;100.00
23417;BME280;11881;42.432;25.632;2022-11-20T14:12:03;98543.44;;;19.49;100.00
23417;BME280;11881;42.432;25.632;2022-11-20T14:14:32;98542.75;;;19.54;100.00
23417;BME280;11881;42.432;25.632;2022-11-20T14:17:20;98539.03;;;19.61;100.00
23417;BME280;11881;42.432;25.632;2022-11-20T14:19:47;98542.13;;;19.65;100.00
23417;BME280;11881;42.432;25.632;2022-11-20T14:22:24;98545.66;;;19.65;100.00
23417;BME280;11881;42.432;25.632;2022-11-20T14:27:43;98547.13;;;19.68;100.00
23417;BME280;11881;42.432;25.632;2022-11-20T14:30:21;98533.81;;;19.66;100.00
23417;BME280;11881;42.432;25.632;2022-11-20T14:32:47;98538.63;;;19.51;100.00
23417;BME280;11881;42.432;25.632;2022-11-20T14:35:23;98536.38;;;19.48;100.00
23417;BME280;11881;42.432;25.632;2022-11-20T14:37:49;98534.91;;;19.46;100.00
23417;BME280;11881;42.432;25.632;2022-11-20T14:40:35;98535.59;;;19.28;100.00